Time;durP1;ratioP1;P1;durP2;ratioP2;P2;SDS_P1;SDS_P2;PMS_P1;PMS_P2;Temp;Humidity;BMP_temperature;BMP_pressure;BME280_temperature;BME280_humidity;BME280_pressure;Samples;Min_cycle;Max_cycle;Signal;HPM_P1;HPM_P2
2022/03/07 00:00:20;;;;;;;;;75.25;54.75;;;;;6.23;44.36;102167.88;2444061;28;44776;-89
2022/03/07 00:01:30;;;;;;;;;72.00;51.50;;;;;6.23;44.21;102172.22;2444012;28;46058;-91
2022/03/07 00:02:41;;;;;;;;;69.00;54.75;;;;;6.20;43.96;102167.84;2454191;27;44800;-91
2022/03/07 00:03:55;;;;;;;;;68.00;53.75;;;;;6.18;44.49;102166.97;2451009;28;47267;-91
2022/03/07 00:05:06;;;;;;;;;66.25;51.75;;;;;6.17;44.46;102173.06;2451229;28;45363;-90
2022/03/07 00:06:16;;;;;;;;;70.50;52.25;;;;;6.15;44.73;102166.97;2451508;28;45675;-90
2022/03/07 00:07:27;;;;;;;;;66.25;51.75;;;;;6.16;44.53;102168.69;2451850;27;44765;-91
2022/03/07 00:08:38;;;;;;;;;72.00;52.75;;;;;6.15;44.64;102165.19;2451001;28;46095;-90
2022/03/07 00:09:48;;;;;;;;;64.75;51.75;;;;;6.15;44.57;102165.19;2451348;28;45454;-90
2022/03/07 00:10:59;;;;;;;;;71.00;54.75;;;;;6.15;44.34;102165.19;2450881;28;46552;-90
2022/03/07 00:12:09;;;;;;;;;67.25;52.50;;;;;6.16;44.34;102168.69;2444225;28;45448;-91
2022/03/07 00:13:21;;;;;;;;;70.25;54.50;;;;;6.14;44.46;102166.06;2450565;28;46193;-90
2022/03/07 00:14:31;;;;;;;;;69.50;52.50;;;;;6.13;44.41;102166.94;2451792;27;45164;-91
2022/03/07 00:15:42;;;;;;;;;68.50;52.75;;;;;6.12;44.49;102161.69;2450855;28;48022;-90
2022/03/07 00:16:52;;;;;;;;;69.00;53.75;;;;;6.12;44.98;102156.47;2451443;28;45226;-90
2022/03/07 00:18:02;;;;;;;;;71.25;54.25;;;;;6.08;44.63;102166.00;2450794;28;47374;-89
2022/03/07 00:19:13;;;;;;;;;64.00;49.25;;;;;6.06;44.74;102165.09;2451311;28;44690;-89
2022/03/07 00:20:24;;;;;;;;;68.75;52.25;;;;;6.03;44.68;102162.44;2451215;27;45271;-89
2022/03/07 00:21:34;;;;;;;;;68.50;52.75;;;;;6.01;44.99;102172.88;2451844;28;45204;-88
2022/03/07 00:22:45;;;;;;;;;61.00;48.00;;;;;5.97;44.61;102164.13;2451653;27;46111;-88
2022/03/07 00:23:55;;;;;;;;;67.00;50.75;;;;;6.00;44.69;102172.88;2451633;28;45536;-89
2022/03/07 00:25:06;;;;;;;;;68.00;52.25;;;;;5.97;44.80;102163.28;2451550;27;46552;-89
2022/03/07 00:26:17;;;;;;;;;68.75;55.00;;;;;5.95;44.84;102165.84;2451102;28;45299;-89
2022/03/07 00:27:27;;;;;;;;;66.25;51.25;;;;;5.92;44.78;102163.25;2450937;28;46346;-89
2022/03/07 00:28:38;;;;;;;;;68.50;52.50;;;;;5.91;44.74;102168.44;2451148;27;45279;-89
2022/03/07 00:29:48;;;;;;;;;65.25;51.25;;;;;5.90;44.93;102164.09;2451518;28;45336;-89
2022/03/07 00:30:59;;;;;;;;;68.00;51.25;;;;;5.89;44.78;102164.94;2451519;27;45433;-89
2022/03/07 00:32:09;;;;;;;;;67.75;53.50;;;;;5.90;45.10;102171.91;2451466;27;45437;-89
2022/03/07 00:33:19;;;;;;;;;67.50;50.75;;;;;5.89;45.19;102165.81;2450870;28;45303;-88
2022/03/07 00:34:30;;;;;;;;;63.25;50.25;;;;;5.92;45.28;102175.41;2451021;28;46164;-88
2022/03/07 00:35:40;;;;;;;;;69.25;53.75;;;;;5.94;44.78;102171.06;2450660;28;45274;-87
2022/03/07 00:36:50;;;;;;;;;70.00;51.75;;;;;5.91;44.88;102173.66;2450686;27;45574;-88
2022/03/07 00:38:01;;;;;;;;;64.50;51.50;;;;;5.92;45.02;102170.19;2451741;27;45210;-88
2022/03/07 00:39:11;;;;;;;;;67.50;51.25;;;;;5.91;44.78;102178.88;2451357;27;45351;-88
2022/03/07 00:40:22;;;;;;;;;64.75;49.75;;;;;5.91;45.41;102179.75;2451485;28;45235;-88
2022/03/07 00:41:33;;;;;;;;;68.25;52.25;;;;;5.90;45.34;102171.91;2451374;28;45417;-88
2022/03/07 00:42:43;;;;;;;;;69.75;53.50;;;;;5.88;45.54;102169.28;2451662;27;45263;-87
2022/03/07 00:43:54;;;;;;;;;68.50;53.75;;;;;5.88;45.06;102171.88;2451046;28;46168;-87
2022/03/07 00:45:07;;;;;;;;;67.25;51.50;;;;;5.89;45.07;102167.53;2450822;28;45199;-88
2022/03/07 00:46:17;;;;;;;;;69.25;53.25;;;;;5.86;45.23;102173.59;2450830;28;46237;-87
2022/03/07 00:47:28;;;;;;;;;67.75;52.25;;;;;5.85;45.31;102175.34;2451765;27;45479;-89
2022/03/07 00:48:38;;;;;;;;;69.00;53.50;;;;;5.85;44.94;102171.88;2451414;27;45475;-88
2022/03/07 00:49:48;;;;;;;;;67.50;53.75;;;;;5.85;45.25;102174.47;2451147;27;45412;-88
2022/03/07 00:50:59;;;;;;;;;59.00;47.00;;;;;5.83;45.33;102171.84;2450542;28;48153;-87
2022/03/07 00:52:10;;;;;;;;;66.75;48.75;;;;;5.81;45.22;102165.72;2450814;28;45450;-88
2022/03/07 00:53:23;;;;;;;;;68.50;50.75;;;;;5.79;45.36;102172.66;2451261;28;45510;-90
2022/03/07 00:54:33;;;;;;;;;67.50;50.50;;;;;5.76;45.30;102162.19;2451808;27;45283;-92
2022/03/07 00:55:44;;;;;;;;;68.75;52.00;;;;;5.76;45.18;102175.25;2450851;28;47079;-91
2022/03/07 00:56:54;;;;;;;;;68.25;52.75;;;;;5.79;44.80;102171.78;2451333;28;45252;-91
2022/03/07 00:58:05;;;;;;;;;65.75;50.25;;;;;5.77;45.36;102171.78;2450707;28;48060;-91
2022/03/07 00:59:15;;;;;;;;;65.25;51.50;;;;;5.77;45.35;102169.19;2443881;28;45166;-91
2022/03/07 01:00:26;;;;;;;;;70.00;52.50;;;;;5.77;45.47;102170.91;2451947;27;47131;-92
2022/03/07 01:01:36;;;;;;;;;63.00;50.50;;;;;5.75;45.71;102176.13;2448934;28;44759;-93
2022/03/07 01:02:47;;;;;;;;;59.50;47.00;;;;;5.71;45.47;102169.09;2450885;28;47322;-93
2022/03/07 01:03:57;;;;;;;;;68.00;50.75;;;;;5.70;45.49;102169.97;2450962;28;44714;-94
2022/03/07 01:05:07;;;;;;;;;65.00;51.50;;;;;5.67;45.65;102165.59;2453329;27;48220;-93
2022/03/07 01:06:18;;;;;;;;;61.25;50.00;;;;;5.67;45.75;102167.31;2451036;28;45323;-92
2022/03/07 01:07:28;;;;;;;;;65.50;52.25;;;;;5.67;45.45;102169.94;2443940;28;47117;-92
2022/03/07 01:08:39;;;;;;;;;63.75;50.00;;;;;5.67;45.74;102173.41;2451277;28;45350;-91
2022/03/07 01:09:49;;;;;;;;;62.25;49.50;;;;;5.69;45.75;102176.03;2450985;28;46838;-93
2022/03/07 01:11:00;;;;;;;;;68.00;51.25;;;;;5.65;45.44;102166.44;2440933;28;45167;-90
2022/03/07 01:12:10;;;;;;;;;65.25;51.25;;;;;5.63;45.88;102167.28;2450592;28;47896;-92
2022/03/07 01:13:22;;;;;;;;;64.00;50.00;;;;;5.63;45.50;102175.09;2443480;28;45675;-91
2022/03/07 01:14:32;;;;;;;;;62.75;50.00;;;;;5.61;45.54;102171.63;2434058;28;48007;-91
2022/03/07 01:15:43;;;;;;;;;67.25;51.25;;;;;5.62;46.03;102167.28;2439913;28;45228;-90
2022/03/07 01:16:53;;;;;;;;;64.50;50.50;;;;;5.58;45.87;102166.34;2443564;28;47085;-90
2022/03/07 01:18:04;;;;;;;;;64.00;49.25;;;;;5.57;45.92;102167.22;2450680;28;45290;-91
2022/03/07 01:19:14;;;;;;;;;55.75;43.00;;;;;5.55;46.20;102168.94;2450686;28;47010;-93
2022/03/07 01:20:26;;;;;;;;;65.75;51.75;;;;;5.54;45.88;102166.31;2443953;28;45169;-92
2022/03/07 01:21:39;;;;;;;;;65.75;49.25;;;;;5.54;45.91;102163.69;2450993;28;46330;-92
2022/03/07 01:22:49;;;;;;;;;66.50;50.50;;;;;5.52;45.74;102171.50;2451205;28;44634;-94
2022/03/07 01:23:59;;;;;;;;;64.50;51.00;;;;;5.53;46.06;102172.41;2443718;28;47157;-94
2022/03/07 01:25:10;;;;;;;;;66.00;50.75;;;;;5.51;45.83;102165.41;2451231;28;45303;-94
2022/03/07 01:26:21;;;;;;;;;66.50;49.00;;;;;5.51;45.99;102161.94;2443633;28;48146;-91
2022/03/07 01:27:32;;;;;;;;;66.25;51.50;;;;;5.48;46.11;102162.75;2444033;28;44672;-94
2022/03/07 01:28:43;;;;;;;;;61.75;48.75;;;;;5.48;45.76;102154.09;2443808;28;47028;-94
2022/03/07 01:29:53;;;;;;;;;65.75;50.00;;;;;5.49;45.72;102163.66;2450981;28;45220;-94
2022/03/07 01:31:04;;;;;;;;;64.50;51.50;;;;;5.50;46.02;102162.81;2443795;28;48019;-93
2022/03/07 01:32:14;;;;;;;;;63.00;51.00;;;;;5.49;45.90;102169.75;2451245;28;45239;-93
2022/03/07 01:33:25;;;;;;;;;63.50;48.75;;;;;5.48;45.85;102159.31;2450951;28;47176;-93
2022/03/07 01:34:40;;;;;;;;;64.00;49.50;;;;;5.46;46.05;102159.28;2447541;28;45431;-95
2022/03/07 01:35:53;;;;;;;;;62.50;49.50;;;;;5.45;45.82;102159.25;2453869;28;45359;-94
2022/03/07 01:37:04;;;;;;;;;63.75;50.75;;;;;5.45;46.04;102161.88;2453010;28;45307;-91
2022/03/07 01:38:14;;;;;;;;;62.75;49.25;;;;;5.43;46.00;102159.25;2443428;28;47293;-91
2022/03/07 01:39:25;;;;;;;;;63.50;47.75;;;;;5.42;45.90;102160.09;2450738;28;45129;-91
2022/03/07 01:40:35;;;;;;;;;64.50;48.75;;;;;5.42;46.32;102164.44;2450687;28;45199;-92
2022/03/07 01:41:46;;;;;;;;;62.50;48.50;;;;;5.40;45.93;102169.63;2450650;28;45321;-90
2022/03/07 01:42:56;;;;;;;;;63.25;49.75;;;;;5.38;46.02;102163.53;2443312;28;47014;-91
2022/03/07 01:44:19;;;;;;;;;65.00;49.50;;;;;5.35;46.09;102166.97;2443206;28;45345;-91
2022/03/07 01:45:30;;;;;;;;;63.25;47.75;;;;;5.35;46.17;102156.56;2444866;28;47981;-91
2022/03/07 01:46:40;;;;;;;;;63.75;48.25;;;;;5.35;46.56;102160.88;2443476;28;44624;-93
2022/03/07 01:47:51;;;;;;;;;67.50;50.25;;;;;5.35;46.48;102166.09;2450773;28;45458;-92
2022/03/07 01:49:01;;;;;;;;;62.00;50.75;;;;;5.34;46.38;102162.59;2450405;28;45256;-89
2022/03/07 01:50:14;;;;;;;;;66.25;49.75;;;;;5.33;46.34;102166.09;2450282;28;45359;-88
2022/03/07 01:51:25;;;;;;;;;58.50;47.25;;;;;5.33;46.50;102160.00;2441499;28;45227;-89
2022/03/07 01:52:38;;;;;;;;;64.25;48.50;;;;;5.28;46.58;102158.19;2447348;28;45627;-90
2022/03/07 01:53:49;;;;;;;;;63.50;48.00;;;;;5.29;46.08;102159.94;2452040;27;45312;-95
2022/03/07 01:54:59;;;;;;;;;63.25;49.75;;;;;5.29;46.09;102164.28;2450392;28;47237;-92
2022/03/07 01:56:10;;;;;;;;;64.75;49.50;;;;;5.28;46.17;102157.34;2450951;28;45285;-92
2022/03/07 01:57:20;;;;;;;;;54.50;40.75;;;;;5.25;46.40;102152.97;2450197;28;47984;-85
2022/03/07 01:58:30;;;;;;;;;59.00;46.25;;;;;5.25;46.58;102154.69;2449741;28;45260;-84
2022/03/07 01:59:41;;;;;;;;;59.50;47.50;;;;;5.22;46.37;102150.31;2450802;27;45389;-85
2022/03/07 02:00:51;;;;;;;;;62.75;48.00;;;;;5.22;46.44;102146.81;2450796;28;45293;-86
2022/03/07 02:02:02;;;;;;;;;65.25;48.00;;;;;5.21;46.69;102139.88;2450205;28;48233;-85
2022/03/07 02:03:13;;;;;;;;;61.00;47.25;;;;;5.22;46.86;102141.59;2450419;28;45240;-86
2022/03/07 02:04:24;;;;;;;;;64.75;47.50;;;;;5.20;46.36;102139.00;2450803;27;45436;-85
2022/03/07 02:05:34;;;;;;;;;62.25;49.00;;;;;5.20;46.67;102148.53;2450632;27;45206;-85
2022/03/07 02:06:46;;;;;;;;;59.50;48.25;;;;;5.19;46.32;102142.44;2450817;28;46274;-85
2022/03/07 02:07:57;;;;;;;;;63.00;48.75;;;;;5.21;46.47;102145.09;2450880;27;45211;-87
2022/03/07 02:09:08;;;;;;;;;60.00;47.50;;;;;5.20;46.53;102148.53;2450780;27;45374;-86
2022/03/07 02:10:19;;;;;;;;;60.00;48.00;;;;;5.19;46.48;102145.03;2451966;27;45263;-86
2022/03/07 02:11:29;;;;;;;;;54.00;44.50;;;;;5.17;46.39;102138.94;2450906;27;46176;-85
2022/03/07 02:12:40;;;;;;;;;60.75;47.25;;;;;5.17;46.69;102145.03;2450953;27;44763;-88
2022/03/07 02:13:51;;;;;;;;;63.00;48.25;;;;;5.15;46.31;102138.94;2450441;28;46219;-90
2022/03/07 02:15:02;;;;;;;;;58.25;45.00;;;;;5.15;47.02;102144.16;2450256;28;44663;-90
2022/03/07 02:16:14;;;;;;;;;63.25;47.50;;;;;5.13;46.70;102140.66;2449944;28;45598;-90
2022/03/07 02:17:25;;;;;;;;;63.75;48.25;;;;;5.12;46.53;102138.00;2450759;28;44598;-92
2022/03/07 02:18:35;;;;;;;;;61.75;49.50;;;;;5.11;46.85;102134.50;2450121;28;46995;-84
2022/03/07 02:19:46;;;;;;;;;60.75;45.75;;;;;5.08;46.62;102129.28;2450285;28;45204;-84
2022/03/07 02:21:03;;;;;;;;;61.75;46.25;;;;;5.05;46.51;102132.72;2450722;28;46697;-85
2022/03/07 02:22:17;;;;;;;;;61.25;47.50;;;;;5.03;46.72;102136.16;2450942;27;44607;-86
2022/03/07 02:23:27;;;;;;;;;57.50;46.00;;;;;5.00;47.05;102130.91;2450703;28;45389;-86
2022/03/07 02:24:37;;;;;;;;;60.50;45.75;;;;;4.98;47.02;102127.41;2450807;28;45268;-86
2022/03/07 02:25:48;;;;;;;;;57.75;44.50;;;;;4.95;46.89;102130.84;2450723;27;46037;-85
2022/03/07 02:27:06;;;;;;;;;58.50;45.75;;;;;4.93;46.82;102125.63;2450725;28;45272;-87
2022/03/07 02:28:16;;;;;;;;;60.00;44.75;;;;;4.95;46.95;102128.25;2449175;28;47117;-86
2022/03/07 02:29:28;;;;;;;;;63.50;49.75;;;;;4.92;46.79;102128.19;2450128;28;45321;-89
2022/03/07 02:30:39;;;;;;;;;59.50;45.00;;;;;4.91;47.37;102124.75;2450751;28;45347;-89
2022/03/07 02:31:50;;;;;;;;;62.50;48.50;;;;;4.91;47.02;102132.56;2450026;28;44759;-89
2022/03/07 02:33:00;;;;;;;;;62.00;48.00;;;;;4.90;47.26;102130.78;2450125;28;45426;-89
2022/03/07 02:34:10;;;;;;;;;58.50;43.25;;;;;4.91;46.97;102121.25;2450079;28;45364;-90
2022/03/07 02:35:21;;;;;;;;;60.25;46.00;;;;;4.90;46.97;102122.09;2450135;28;45615;-88
2022/03/07 02:36:31;;;;;;;;;58.25;45.75;;;;;4.88;46.74;102114.28;2450740;28;45255;-88
2022/03/07 02:37:42;;;;;;;;;60.50;47.00;;;;;4.89;47.45;102122.97;2450731;27;46533;-88
2022/03/07 02:38:52;;;;;;;;;52.25;41.00;;;;;4.88;46.88;102119.47;2450912;27;45201;-89
2022/03/07 02:40:03;;;;;;;;;55.25;43.00;;;;;4.88;46.83;102116.88;2450235;27;46182;-89
2022/03/07 02:41:13;;;;;;;;;63.25;49.00;;;;;4.86;46.84;102115.09;2449732;28;45278;-88
2022/03/07 02:42:24;;;;;;;;;60.50;46.00;;;;;4.84;47.21;102120.28;2449962;28;46888;-88
2022/03/07 02:43:35;;;;;;;;;56.25;45.50;;;;;4.80;46.71;102115.88;2449927;28;45237;-90
2022/03/07 02:44:45;;;;;;;;;62.25;47.50;;;;;4.80;47.00;102124.59;2449324;28;46925;-91
2022/03/07 02:45:58;;;;;;;;;57.25;45.25;;;;;4.78;47.29;102113.28;2450335;28;45435;-90
2022/03/07 02:47:12;;;;;;;;;61.50;48.50;;;;;4.78;47.32;102110.66;2449997;28;47319;-87
2022/03/07 02:48:22;;;;;;;;;61.25;48.50;;;;;4.79;47.06;102114.16;2451039;28;45349;-88
2022/03/07 02:49:33;;;;;;;;;57.25;44.00;;;;;4.78;47.27;102115.00;2452267;27;45473;-88
2022/03/07 02:50:45;;;;;;;;;55.25;43.50;;;;;4.79;47.15;102117.59;2451614;28;45360;-87
2022/03/07 02:51:55;;;;;;;;;60.25;48.50;;;;;4.77;47.35;102108.00;2451401;28;45457;-87
2022/03/07 02:53:06;;;;;;;;;63.75;49.25;;;;;4.77;47.09;102108.00;2452583;27;44668;-88
2022/03/07 02:54:16;;;;;;;;;60.00;45.75;;;;;4.76;47.02;102108.88;2451401;28;47857;-88
2022/03/07 02:55:27;;;;;;;;;60.75;47.25;;;;;4.77;47.36;102113.22;2444544;28;45346;-88
2022/03/07 02:56:37;;;;;;;;;58.00;46.25;;;;;4.75;47.41;102107.13;2444288;28;47332;-88
2022/03/07 02:57:48;;;;;;;;;59.50;44.75;;;;;4.76;47.04;102106.28;2443978;28;44736;-87
2022/03/07 02:58:58;;;;;;;;;52.00;41.50;;;;;4.73;47.41;102104.50;2444230;28;47088;-87
2022/03/07 03:00:10;;;;;;;;;56.00;44.25;;;;;4.73;47.44;102097.56;2451104;28;44725;-88
2022/03/07 03:01:20;;;;;;;;;59.25;46.00;;;;;4.75;47.28;102104.53;2444204;28;46940;-88
2022/03/07 03:02:30;;;;;;;;;55.25;45.00;;;;;4.72;47.43;102101.03;2451850;28;44661;-90
2022/03/07 03:03:41;;;;;;;;;59.50;45.75;;;;;4.69;47.70;102095.75;2452279;28;45087;-88
2022/03/07 03:04:51;;;;;;;;;55.25;41.00;;;;;4.70;47.56;102105.34;2451532;28;45227;-88
2022/03/07 03:06:02;;;;;;;;;63.50;47.50;;;;;4.69;47.26;102105.34;2451337;28;46445;-87
2022/03/07 03:07:12;;;;;;;;;60.25;44.75;;;;;4.67;47.14;102100.09;2451128;28;45428;-88
2022/03/07 03:08:23;;;;;;;;;57.50;44.75;;;;;4.67;47.58;102099.19;2451702;28;45318;-90
2022/03/07 03:09:33;;;;;;;;;62.50;47.00;;;;;4.67;47.09;102101.81;2451726;28;44539;-89
2022/03/07 03:10:44;;;;;;;;;56.50;46.75;;;;;4.66;47.31;102108.78;2448687;27;46965;-91
2022/03/07 03:11:54;;;;;;;;;55.00;45.00;;;;;4.61;47.26;102103.50;2449676;27;44624;-87
2022/03/07 03:13:05;;;;;;;;;64.75;47.50;;;;;4.61;47.15;102100.91;2451084;28;45586;-84
2022/03/07 03:14:15;;;;;;;;;53.50;44.75;;;;;4.60;47.32;102101.72;2452016;28;45212;-84
2022/03/07 03:15:25;;;;;;;;;52.00;43.00;;;;;4.59;47.80;102094.75;2451931;28;46287;-83
2022/03/07 03:16:36;;;;;;;;;62.25;46.50;;;;;4.59;47.79;102097.38;2451960;28;45198;-83
2022/03/07 03:17:46;;;;;;;;;55.75;43.75;;;;;4.59;47.67;102089.56;2450659;28;46857;-84
2022/03/07 03:18:57;;;;;;;;;57.50;43.25;;;;;4.61;47.57;102102.63;2451841;28;45390;-84
2022/03/07 03:20:11;;;;;;;;;59.25;44.25;;;;;4.59;47.75;102094.75;2451632;27;45531;-84
2022/03/07 03:21:21;;;;;;;;;57.25;45.00;;;;;4.59;47.36;102099.97;2451938;27;45228;-84
2022/03/07 03:22:32;;;;;;;;;50.00;43.25;;;;;4.60;47.64;102090.44;2452038;27;45206;-84
2022/03/07 03:23:42;;;;;;;;;58.50;44.25;;;;;4.58;47.79;102087.81;2452216;27;45192;-84
2022/03/07 03:24:52;;;;;;;;;56.50;44.00;;;;;4.60;47.23;102098.25;2452180;27;45325;-84
2022/03/07 03:26:03;;;;;;;;;54.75;42.75;;;;;4.60;47.71;102093.03;2452036;28;45350;-84
2022/03/07 03:27:13;;;;;;;;;56.25;44.25;;;;;4.61;47.63;102094.81;2452044;27;45562;-86
2022/03/07 03:28:24;;;;;;;;;56.00;43.50;;;;;4.61;47.74;102089.59;2451981;28;45301;-87
2022/03/07 03:29:34;;;;;;;;;59.75;44.75;;;;;4.60;47.29;102093.91;2451952;28;45411;-87
2022/03/07 03:30:44;;;;;;;;;58.00;43.75;;;;;4.61;48.08;102089.59;2452119;28;45235;-87
2022/03/07 03:31:55;;;;;;;;;57.50;44.75;;;;;4.63;47.86;102084.38;2451223;28;47005;-88
2022/03/07 03:33:06;;;;;;;;;56.25;44.50;;;;;4.60;47.72;102093.03;2451748;28;44831;-87
2022/03/07 03:34:16;;;;;;;;;58.25;43.75;;;;;4.62;47.18;102093.94;2451973;28;45441;-87
2022/03/07 03:35:27;;;;;;;;;57.75;43.50;;;;;4.62;47.71;102093.94;2451500;27;45157;-86
2022/03/07 03:36:38;;;;;;;;;54.25;42.25;;;;;4.60;47.96;102096.53;2451909;28;45967;-87
2022/03/07 03:37:48;;;;;;;;;58.50;45.00;;;;;4.60;47.35;102100.84;2451780;28;44774;-87
2022/03/07 03:38:58;;;;;;;;;63.25;47.00;;;;;4.56;47.57;102094.75;2451081;28;46179;-87
2022/03/07 03:40:11;;;;;;;;;50.00;40.50;;;;;4.53;47.93;102089.47;2451574;28;44685;-86
2022/03/07 03:41:21;;;;;;;;;57.75;44.50;;;;;4.53;47.59;102097.28;2452034;27;45797;-87
2022/03/07 03:42:32;;;;;;;;;60.25;45.00;;;;;4.52;47.84;102098.13;2452192;27;45243;-87
2022/03/07 03:43:42;;;;;;;;;55.25;44.25;;;;;4.53;47.93;102105.09;2451604;28;46294;-87
2022/03/07 03:44:53;;;;;;;;;57.25;45.25;;;;;4.53;47.61;102101.63;2451314;28;45278;-87
2022/03/07 03:46:03;;;;;;;;;54.50;43.50;;;;;4.54;47.74;102100.78;2443398;28;47234;-88
2022/03/07 03:47:14;;;;;;;;;54.50;43.25;;;;;4.54;47.89;102098.19;2451567;28;45204;-86
2022/03/07 03:48:24;;;;;;;;;60.00;45.25;;;;;4.52;47.57;102100.72;2451965;27;45454;-86
2022/03/07 03:49:35;;;;;;;;;61.00;43.50;;;;;4.52;47.72;102108.53;2451635;27;45164;-86
2022/03/07 03:50:45;;;;;;;;;60.50;45.25;;;;;4.53;47.71;102104.22;2450916;28;46314;-84
2022/03/07 03:51:56;;;;;;;;;53.75;42.25;;;;;4.50;47.67;102098.13;2444188;28;45303;-87
2022/03/07 03:53:07;;;;;;;;;58.25;44.75;;;;;4.49;47.56;102104.16;2444031;28;47144;-88
2022/03/07 03:54:17;;;;;;;;;50.75;42.50;;;;;4.50;48.15;102103.31;2451177;28;44712;-87
2022/03/07 03:55:27;;;;;;;;;56.25;45.50;;;;;4.49;47.66;102104.16;2451339;28;45451;-87
2022/03/07 03:56:38;;;;;;;;;58.75;44.25;;;;;4.50;48.19;102107.66;2450797;28;44775;-87
2022/03/07 03:57:48;;;;;;;;;57.00;40.25;;;;;4.51;48.19;102109.41;2451326;28;46615;-88
2022/03/07 03:58:59;;;;;;;;;54.25;42.75;;;;;4.51;47.66;102106.81;2450924;27;45246;-87
2022/03/07 04:00:12;;;;;;;;;53.50;43.00;;;;;4.51;48.22;102106.81;2450950;28;48047;-88
2022/03/07 04:01:22;;;;;;;;;55.25;44.00;;;;;4.50;47.55;102102.44;2444464;28;44662;-88
2022/03/07 04:02:33;;;;;;;;;57.00;44.50;;;;;4.50;47.89;102103.31;2451240;28;45348;-88
2022/03/07 04:03:43;;;;;;;;;55.25;44.00;;;;;4.52;47.92;102102.50;2451673;28;45230;-87
2022/03/07 04:04:54;;;;;;;;;55.00;41.75;;;;;4.51;48.27;102096.41;2451563;27;46164;-87
2022/03/07 04:06:06;;;;;;;;;57.25;43.50;;;;;4.50;47.83;102095.50;2451409;27;45261;-89
2022/03/07 04:07:17;;;;;;;;;51.50;42.00;;;;;4.51;47.61;102101.59;2451743;27;45367;-88
2022/03/07 04:08:27;;;;;;;;;48.00;39.00;;;;;4.49;47.77;102101.56;2451783;27;44802;-88
2022/03/07 04:09:38;;;;;;;;;60.25;45.50;;;;;4.50;48.02;102100.72;2451735;28;45586;-88
2022/03/07 04:10:48;;;;;;;;;58.00;43.25;;;;;4.48;47.77;102102.44;2450935;28;44749;-85
2022/03/07 04:11:58;;;;;;;;;52.25;40.00;;;;;4.46;48.17;102101.53;2451108;28;45432;-85
2022/03/07 04:13:09;;;;;;;;;55.50;42.50;;;;;4.46;47.83;102106.75;2451024;27;44801;-86
2022/03/07 04:14:19;;;;;;;;;54.75;44.50;;;;;4.45;47.71;102114.53;2451744;28;46633;-86
2022/03/07 04:15:30;;;;;;;;;52.00;41.50;;;;;4.42;47.50;102110.13;2451864;27;44739;-87
2022/03/07 04:16:41;;;;;;;;;56.50;45.00;;;;;4.42;48.11;102104.09;2451570;27;48008;-91
2022/03/07 04:17:51;;;;;;;;;59.75;46.75;;;;;4.42;48.19;102106.69;2444133;28;45170;-90
2022/03/07 04:19:02;;;;;;;;;58.75;44.00;;;;;4.39;48.48;102102.31;2450980;28;46281;-88
2022/03/07 04:20:13;;;;;;;;;52.25;41.25;;;;;4.38;48.23;102101.41;2450956;28;44624;-89
2022/03/07 04:21:26;;;;;;;;;57.00;44.50;;;;;4.40;48.29;102109.25;2450884;28;46179;-85
2022/03/07 04:22:37;;;;;;;;;52.75;42.00;;;;;4.38;48.08;102104.03;2451864;27;44699;-85
2022/03/07 04:23:48;;;;;;;;;53.00;42.00;;;;;4.38;47.91;102108.34;2451516;27;45930;-85
2022/03/07 04:24:58;;;;;;;;;49.50;42.25;;;;;4.37;47.68;102099.66;2450949;28;45423;-89
2022/03/07 04:26:09;;;;;;;;;57.25;46.00;;;;;4.37;47.88;102101.41;2443654;28;47897;-87
2022/03/07 04:27:19;;;;;;;;;57.00;44.00;;;;;4.35;48.47;102106.56;2443974;28;45262;-87
2022/03/07 04:28:30;;;;;;;;;53.75;44.00;;;;;4.36;48.41;102107.47;2450385;28;46330;-87
2022/03/07 04:29:40;;;;;;;;;56.25;43.25;;;;;4.31;48.00;102104.78;2450669;28;45201;-86
2022/03/07 04:30:51;;;;;;;;;52.25;41.25;;;;;4.31;48.12;102104.78;2451021;28;46529;-87
2022/03/07 04:32:01;;;;;;;;;56.50;44.00;;;;;4.31;47.73;102103.91;2451750;28;44661;-86
2022/03/07 04:33:11;;;;;;;;;53.25;41.25;;;;;4.31;48.70;102103.91;2451525;27;45277;-88
2022/03/07 04:34:22;;;;;;;;;59.00;46.00;;;;;4.30;47.97;102099.56;2451478;28;45431;-88
2022/03/07 04:35:32;;;;;;;;;52.75;41.25;;;;;4.30;48.31;102109.97;2451086;27;45391;-89
2022/03/07 04:36:43;;;;;;;;;47.25;39.25;;;;;4.28;48.18;102097.81;2450900;28;45233;-88
2022/03/07 04:37:53;;;;;;;;;53.00;43.50;;;;;4.26;48.04;102104.72;2443598;28;47080;-87
2022/03/07 04:39:05;;;;;;;;;55.75;45.25;;;;;4.24;47.74;102106.44;2451418;28;44664;-90
2022/03/07 04:40:17;;;;;;;;;55.50;43.75;;;;;4.21;48.24;102103.75;2451276;28;46610;-92
2022/03/07 04:41:27;;;;;;;;;56.50;44.50;;;;;4.19;48.37;102110.69;2451432;27;45309;-82
2022/03/07 04:42:39;;;;;;;;;54.25;40.25;;;;;4.21;48.82;102108.09;2451157;27;46692;-81
2022/03/07 04:43:50;;;;;;;;;51.25;38.00;;;;;4.20;48.59;102103.75;2451304;28;45752;-91
2022/03/07 04:45:00;;;;;;;;;52.25;40.50;;;;;4.21;47.89;102114.19;2450784;28;48319;-91
2022/03/07 04:46:11;;;;;;;;;55.00;40.00;;;;;4.19;48.37;102110.69;2450932;28;45236;-92
2022/03/07 04:47:21;;;;;;;;;56.75;45.50;;;;;4.20;48.35;102103.75;2450549;28;46845;-93
2022/03/07 04:48:31;;;;;;;;;49.25;42.75;;;;;4.21;48.25;102110.69;2444029;28;45170;-92
2022/03/07 04:49:42;;;;;;;;;52.00;41.25;;;;;4.23;48.55;102108.97;2443764;28;46930;-91
2022/03/07 04:50:52;;;;;;;;;51.25;41.50;;;;;4.21;48.69;102103.75;2443762;28;45502;-92
2022/03/07 04:52:03;;;;;;;;;54.25;42.25;;;;;4.23;48.56;102111.59;2450643;28;47012;-90
2022/03/07 04:53:14;;;;;;;;;55.50;44.50;;;;;4.22;48.32;102109.84;2450985;28;45299;-91
2022/03/07 04:54:24;;;;;;;;;52.75;43.25;;;;;4.21;47.98;102116.78;2450746;28;47127;-90
2022/03/07 04:55:34;;;;;;;;;51.50;41.00;;;;;4.19;48.29;102109.78;2450951;28;45286;-89
2022/03/07 04:56:47;;;;;;;;;54.25;41.75;;;;;4.22;48.59;102117.66;2450312;28;46978;-89
2022/03/07 04:57:57;;;;;;;;;53.75;43.00;;;;;4.18;48.12;102110.63;2450744;28;44759;-89
2022/03/07 04:59:07;;;;;;;;;61.50;46.25;;;;;4.15;48.93;102109.75;2450509;28;46123;-88
2022/03/07 05:00:18;;;;;;;;;54.75;42.75;;;;;4.14;49.20;102114.94;2451058;28;45270;-89
2022/03/07 05:01:29;;;;;;;;;53.50;43.50;;;;;4.12;48.48;102108.84;2451245;28;45122;-88
2022/03/07 05:02:39;;;;;;;;;54.75;44.25;;;;;4.14;48.71;102114.94;2451532;27;44722;-92
2022/03/07 05:03:49;;;;;;;;;54.50;41.00;;;;;4.13;48.64;102113.16;2450873;28;47218;-93
2022/03/07 05:05:00;;;;;;;;;54.50;43.75;;;;;4.13;49.06;102115.75;2443663;28;45428;-90
2022/03/07 05:06:10;;;;;;;;;54.25;44.75;;;;;4.13;48.47;102116.66;2443808;28;47984;-91
2022/03/07 05:07:20;;;;;;;;;58.00;45.50;;;;;4.14;48.96;102117.53;2443879;28;45196;-91
2022/03/07 05:08:31;;;;;;;;;56.75;43.50;;;;;4.13;48.79;102118.38;2444815;28;46928;-92
2022/03/07 05:09:41;;;;;;;;;56.50;46.00;;;;;4.13;48.46;102120.97;2444013;28;45256;-91
2022/03/07 05:10:51;;;;;;;;;55.00;42.25;;;;;4.14;48.78;102118.41;2451418;27;45440;-84
2022/03/07 05:12:02;;;;;;;;;50.00;41.75;;;;;4.13;48.59;102120.97;2451481;27;45151;-85
2022/03/07 05:13:13;;;;;;;;;54.00;40.75;;;;;4.15;49.00;102119.25;2450007;28;47150;-85
2022/03/07 05:14:24;;;;;;;;;55.75;44.75;;;;;4.12;48.19;102114.03;2450774;28;45224;-84
2022/03/07 05:15:34;;;;;;;;;52.25;41.75;;;;;4.14;49.20;102117.53;2451126;28;46200;-85
2022/03/07 05:16:45;;;;;;;;;51.75;40.75;;;;;4.14;48.71;102115.81;2448149;27;44857;-86
2022/03/07 05:17:56;;;;;;;;;51.75;41.50;;;;;4.12;48.33;102121.84;2441434;28;46228;-87
2022/03/07 05:19:06;;;;;;;;;53.25;44.25;;;;;4.11;48.26;102125.28;2451027;28;45210;-87
2022/03/07 05:20:17;;;;;;;;;49.25;40.75;;;;;4.11;49.17;102122.69;2450761;28;46181;-90
2022/03/07 05:21:29;;;;;;;;;55.25;43.75;;;;;4.13;48.48;102131.38;2450631;28;45397;-86
2022/03/07 05:22:39;;;;;;;;;59.25;43.50;;;;;4.11;49.09;102117.47;2450632;28;45397;-87
2022/03/07 05:23:50;;;;;;;;;56.50;43.50;;;;;4.13;48.86;102127.06;2451235;27;45258;-86
2022/03/07 05:25:00;;;;;;;;;55.25;42.75;;;;;4.12;49.25;102120.13;2450655;27;46331;-85